createdAt,value
2018-09-23T00:01:03.855Z,2.90
2018-09-23T00:03:31.980Z,2.30
2018-09-23T00:05:59.863Z,2.90
2018-09-23T00:08:28.195Z,2.37
2018-09-23T00:11:08.263Z,2.23
2018-09-23T00:13:36.008Z,2.40
2018-09-23T00:16:03.999Z,2.37
2018-09-23T00:18:31.854Z,2.43
2018-09-23T00:20:59.507Z,2.40
2018-09-23T00:23:27.556Z,2.63
2018-09-23T00:25:58.115Z,2.23
2018-09-23T00:28:25.868Z,2.40
2018-09-23T00:30:53.831Z,3.17
2018-09-23T00:33:21.789Z,2.30
2018-09-23T00:35:50.623Z,2.10
2018-09-23T00:38:20.168Z,2.50
2018-09-23T00:40:48.082Z,2.43
2018-09-23T00:43:15.917Z,2.13
2018-09-23T00:45:43.526Z,1.90
2018-09-23T00:48:11.341Z,1.90
2018-09-23T00:50:39.889Z,1.90
2018-09-23T00:53:07.627Z,1.70
2018-09-23T00:55:35.666Z,2.53
2018-09-23T00:58:05.779Z,2.23
2018-09-23T01:00:33.467Z,2.50
2018-09-23T01:03:01.134Z,2.40
2018-09-23T01:05:34.644Z,2.50
2018-09-23T01:08:04.660Z,2.60
2018-09-23T01:10:32.701Z,2.87
2018-09-23T01:13:02.701Z,2.40
2018-09-23T01:15:30.695Z,2.27
2018-09-23T01:17:59.491Z,2.40
2018-09-23T01:20:28.830Z,2.50
2018-09-23T01:22:57.122Z,2.17
2018-09-23T01:25:25.254Z,1.97
2018-09-23T01:27:53.223Z,2.17
2018-09-23T01:30:20.916Z,2.20
2018-09-23T01:32:48.551Z,2.20
2018-09-23T01:35:16.236Z,2.03
2018-09-23T01:37:43.899Z,2.57
2018-09-23T01:40:11.658Z,2.50
2018-09-23T01:42:39.763Z,1.90
2018-09-23T01:45:07.559Z,2.83
2018-09-23T01:47:35.273Z,2.27
2018-09-23T01:50:03.099Z,2.50
2018-09-23T01:52:31.086Z,3.03
2018-09-23T01:55:09.436Z,2.30
2018-09-23T01:57:41.128Z,1.90
2018-09-23T02:00:08.872Z,2.67
2018-09-23T02:02:37.635Z,2.40
2018-09-23T02:05:05.811Z,2.80
2018-09-23T02:07:33.835Z,2.50
2018-09-23T02:10:06.894Z,1.90
2018-09-23T02:12:34.807Z,2.43
2018-09-23T02:15:02.511Z,2.10
2018-09-23T02:17:30.755Z,2.83
2018-09-23T02:19:58.640Z,2.47
2018-09-23T02:22:29.479Z,3.10
2018-09-23T02:24:59.786Z,2.40
2018-09-23T02:27:28.068Z,2.63
2018-09-23T02:30:01.059Z,2.40
2018-09-23T02:32:38.879Z,2.57
2018-09-23T02:35:06.845Z,2.53
2018-09-23T02:37:35.803Z,2.20
2018-09-23T02:40:05.721Z,2.63
2018-09-23T02:42:33.878Z,2.60
2018-09-23T02:45:02.961Z,2.53
2018-09-23T02:47:33.070Z,2.70
2018-09-23T02:50:01.211Z,3.20
2018-09-23T02:52:28.975Z,2.43
2018-09-23T02:54:56.859Z,2.47
2018-09-23T02:57:25.986Z,2.93
2018-09-23T02:59:53.897Z,3.30
2018-09-23T03:02:21.839Z,2.70
2018-09-23T03:04:49.909Z,3.40
2018-09-23T03:07:17.657Z,3.43
2018-09-23T03:09:45.526Z,3.33
2018-09-23T03:12:13.362Z,3.47
2018-09-23T03:14:41.118Z,4.27
2018-09-23T03:17:08.970Z,3.40
2018-09-23T03:22:19.515Z,4.40
2018-09-23T03:24:59.789Z,3.40
2018-09-23T03:27:27.547Z,4.17
2018-09-23T03:29:55.598Z,4.77
2018-09-23T03:32:23.514Z,4.27
2018-09-23T03:34:51.713Z,4.17
2018-09-23T03:37:19.505Z,4.43
2018-09-23T03:39:47.203Z,3.97
2018-09-23T03:42:37.749Z,4.73
2018-09-23T03:45:05.631Z,3.63
2018-09-23T03:47:35.003Z,3.37
2018-09-23T03:50:03.887Z,3.03
2018-09-23T03:52:32.003Z,3.10
2018-09-23T03:55:00.075Z,2.90
2018-09-23T03:57:27.987Z,3.50
2018-09-23T03:59:55.913Z,3.77
2018-09-23T04:02:23.576Z,3.13
2018-09-23T04:04:51.642Z,3.23
2018-09-23T04:07:20.937Z,3.20
2018-09-23T04:09:48.773Z,3.17
2018-09-23T04:12:16.455Z,3.10
2018-09-23T04:14:44.624Z,3.30
2018-09-23T04:17:12.939Z,2.73
2018-09-23T04:19:42.137Z,2.97
2018-09-23T04:22:12.375Z,2.70
2018-09-23T04:24:40.465Z,2.70
2018-09-23T04:27:08.772Z,2.40
2018-09-23T04:29:36.706Z,2.13
2018-09-23T04:32:04.635Z,2.43
2018-09-23T04:34:33.027Z,2.03
2018-09-23T04:37:00.905Z,2.30
2018-09-23T04:39:28.831Z,2.37
2018-09-23T04:41:56.621Z,2.13
2018-09-23T04:44:24.385Z,2.00
2018-09-23T04:46:52.146Z,2.17
2018-09-23T04:49:19.872Z,1.70
2018-09-23T04:51:47.727Z,2.03
2018-09-23T04:54:15.698Z,1.70
2018-09-23T04:56:43.514Z,1.87
2018-09-23T04:59:11.337Z,1.70
2018-09-23T05:01:39.112Z,2.10
2018-09-23T05:04:07.035Z,1.60
2018-09-23T05:06:36.106Z,1.60
2018-09-23T05:09:07.680Z,1.50
2018-09-23T05:11:35.442Z,1.30
2018-09-23T05:14:09.426Z,1.63
2018-09-23T05:16:38.560Z,1.77
2018-09-23T05:19:06.376Z,1.40
2018-09-23T05:21:34.243Z,1.77
2018-09-23T05:24:03.242Z,1.43
2018-09-23T05:26:43.860Z,1.30
2018-09-23T05:29:11.921Z,1.10
2018-09-23T05:31:39.875Z,1.23
2018-09-23T05:34:07.831Z,1.10
2018-09-23T05:36:39.569Z,1.13
2018-09-23T05:39:08.965Z,1.20
2018-09-23T05:41:36.879Z,1.07
2018-09-23T05:44:10.456Z,1.17
2018-09-23T05:46:38.875Z,1.00
2018-09-23T05:49:07.237Z,1.20
2018-09-23T05:51:35.916Z,1.03
2018-09-23T05:54:06.733Z,1.10
2018-09-23T05:56:34.651Z,0.90
2018-09-23T05:59:02.433Z,0.90
2018-09-23T06:01:30.264Z,1.00
2018-09-23T06:03:57.931Z,1.00
2018-09-23T06:06:27.733Z,1.13
2018-09-23T06:08:55.664Z,1.10
2018-09-23T06:11:23.300Z,1.20
2018-09-23T06:13:51.011Z,1.20
2018-09-23T06:16:19.373Z,1.60
2018-09-23T06:18:48.308Z,1.67
2018-09-23T06:21:16.417Z,1.40
2018-09-23T06:23:44.579Z,1.50
2018-09-23T06:26:13.626Z,1.70
2018-09-23T06:28:43.097Z,1.73
2018-09-23T06:31:11.273Z,1.50
2018-09-23T06:36:32.553Z,1.87
2018-09-23T06:39:01.147Z,2.00
2018-09-23T06:41:29.035Z,1.97
2018-09-23T06:43:57.104Z,2.30
2018-09-23T06:46:25.699Z,2.00
2018-09-23T06:54:58.969Z,2.30
2018-09-23T06:57:38.976Z,2.33
2018-09-23T07:00:07.107Z,2.40
2018-09-23T07:02:37.852Z,2.57
2018-09-23T07:05:23.872Z,3.10
2018-09-23T07:07:53.518Z,2.03
2018-09-23T07:10:28.945Z,2.40
2018-09-23T07:12:56.819Z,3.03
2018-09-23T07:15:24.587Z,2.67
2018-09-23T07:17:53.417Z,2.20
2018-09-23T07:20:21.122Z,2.43
2018-09-23T07:22:50.139Z,2.13
2018-09-23T07:25:18.803Z,2.33
2018-09-23T07:27:49.313Z,2.50
2018-09-23T07:30:17.196Z,2.30
2018-09-23T07:32:44.887Z,2.80
2018-09-23T07:40:04.482Z,2.17
2018-09-23T07:42:32.777Z,2.40
2018-09-23T07:45:00.455Z,2.10
2018-09-23T07:47:44.828Z,2.27
2018-09-23T07:50:12.655Z,2.13
2018-09-23T07:52:45.764Z,2.00
2018-09-23T07:55:22.138Z,1.93
2018-09-23T07:58:00.495Z,1.93
2018-09-23T08:00:31.121Z,2.03
2018-09-23T08:03:00.714Z,4.27
2018-09-23T08:05:29.065Z,2.40
2018-09-23T08:07:56.807Z,3.10
2018-09-23T08:10:27.235Z,3.70
2018-09-23T08:12:55.333Z,2.80
2018-09-23T08:15:25.549Z,2.57
2018-09-23T08:17:53.873Z,2.50
2018-09-23T08:20:22.495Z,2.90
2018-09-23T08:22:50.402Z,2.90
2018-09-23T08:25:19.934Z,2.83
2018-09-23T08:27:47.701Z,2.70
2018-09-23T08:30:17.744Z,2.60
2018-09-23T08:32:45.875Z,2.60
2018-09-23T08:35:13.620Z,2.30
2018-09-23T08:37:41.435Z,3.10
2018-09-23T08:40:09.765Z,2.40
2018-09-23T08:42:39.377Z,2.90
2018-09-23T08:45:07.684Z,2.40
2018-09-23T08:47:38.224Z,2.97
2018-09-23T08:50:07.172Z,2.50
2018-09-23T08:52:34.987Z,2.70
2018-09-23T08:57:15.283Z,2.87
2018-09-23T08:59:44.200Z,2.80
2018-09-23T09:02:11.858Z,3.33
2018-09-23T09:04:39.728Z,3.30
2018-09-23T09:07:07.940Z,3.80
2018-09-23T09:10:09.782Z,3.40
2018-09-23T09:12:37.642Z,3.20
2018-09-23T09:15:05.465Z,3.50
2018-09-23T09:17:38.566Z,3.40
2018-09-23T09:20:06.705Z,4.20
2018-09-23T09:22:42.179Z,3.33
2018-09-23T09:25:11.665Z,3.90
2018-09-23T09:27:39.479Z,3.40
2018-09-23T09:30:07.846Z,3.43
2018-09-23T09:32:37.180Z,4.00
2018-09-23T09:35:05.171Z,3.10
2018-09-23T09:46:22.437Z,3.70
2018-09-23T09:48:58.724Z,3.63
2018-09-23T09:51:28.247Z,3.93
2018-09-23T09:53:58.807Z,3.90
2018-09-23T09:56:26.933Z,3.77
2018-09-23T09:58:55.696Z,3.87
2018-09-23T10:01:23.429Z,5.00
2018-09-23T10:03:52.187Z,4.93
2018-09-23T10:06:19.888Z,4.60
2018-09-23T10:08:47.843Z,4.60
2018-09-23T10:11:15.940Z,5.73
2018-09-23T10:13:44.397Z,4.93
2018-09-23T10:16:12.182Z,4.97
2018-09-23T10:18:40.390Z,5.47
2018-09-23T10:21:08.495Z,5.30
2018-09-23T10:23:36.699Z,5.40
2018-09-23T10:26:04.746Z,4.83
2018-09-23T10:28:32.496Z,5.30
2018-09-23T10:31:00.992Z,6.47
2018-09-23T10:33:29.623Z,6.00
2018-09-23T10:35:57.808Z,6.10
2018-09-23T10:38:25.497Z,6.60
2018-09-23T10:40:56.788Z,6.53
2018-09-23T10:43:24.825Z,7.77
2018-09-23T10:45:52.885Z,6.40
2018-09-23T10:48:21.018Z,6.60
2018-09-23T10:50:48.730Z,7.57
2018-09-23T10:53:16.501Z,7.57
2018-09-23T10:55:44.767Z,6.63
2018-09-23T10:58:13.293Z,3.90
2018-09-23T11:00:41.360Z,1.80
2018-09-23T11:03:09.226Z,1.90
2018-09-23T11:05:39.137Z,1.83
2018-09-23T11:08:08.014Z,1.23
2018-09-23T11:10:36.064Z,1.20
2018-09-23T11:13:06.800Z,1.27
2018-09-23T11:15:42.749Z,1.17
2018-09-23T11:18:10.727Z,1.00
2018-09-23T11:20:38.520Z,1.20
2018-09-23T11:23:07.340Z,0.97
2018-09-23T11:25:35.243Z,1.07
2018-09-23T11:28:03.077Z,0.80
2018-09-23T11:30:34.336Z,0.90
2018-09-23T11:33:07.321Z,1.13
2018-09-23T11:35:38.307Z,0.80
2018-09-23T11:38:08.129Z,0.93
2018-09-23T11:40:36.456Z,0.90
2018-09-23T11:43:06.972Z,1.07
2018-09-23T11:45:35.104Z,1.10
2018-09-23T11:48:03.972Z,1.17
2018-09-23T11:50:31.998Z,1.00
2018-09-23T11:53:01.421Z,0.83
2018-09-23T11:55:29.966Z,1.20
2018-09-23T11:57:58.904Z,0.90
2018-09-23T12:00:27.056Z,0.87
2018-09-23T12:02:56.008Z,1.10
2018-09-23T12:05:24.298Z,1.17
2018-09-23T12:07:52.181Z,0.90
2018-09-23T12:10:20.149Z,1.07
2018-09-23T12:12:48.568Z,1.00
2018-09-23T12:15:17.744Z,1.10
2018-09-23T12:17:48.365Z,0.87
2018-09-23T12:20:16.352Z,1.03
2018-09-23T12:22:46.573Z,1.10
2018-09-23T12:25:15.129Z,0.87
2018-09-23T12:27:43.019Z,0.97
2018-09-23T12:30:15.723Z,0.83
2018-09-23T12:32:45.084Z,0.87
2018-09-23T12:38:13.863Z,0.70
2018-09-23T12:40:43.705Z,1.63
2018-09-23T12:43:11.401Z,0.80
2018-09-23T12:45:39.196Z,1.03
2018-09-23T12:48:07.508Z,1.23
2018-09-23T12:50:35.359Z,0.90
2018-09-23T12:53:03.309Z,0.97
2018-09-23T12:55:39.169Z,0.80
2018-09-23T12:58:08.303Z,0.93
2018-09-23T13:00:37.824Z,0.70
2018-09-23T13:03:05.971Z,0.70
2018-09-23T13:05:36.289Z,0.83
2018-09-23T13:08:04.575Z,0.77
2018-09-23T13:10:38.744Z,0.97
2018-09-23T13:13:11.767Z,0.90
2018-09-23T13:15:42.388Z,0.83
2018-09-23T13:18:11.179Z,0.73
2018-09-23T13:20:42.053Z,0.83
2018-09-23T13:23:10.495Z,0.70
2018-09-23T13:25:38.673Z,0.73
2018-09-23T13:28:09.050Z,0.80
2018-09-23T13:30:38.573Z,0.70
2018-09-23T13:33:07.078Z,0.80
2018-09-23T13:35:38.742Z,1.00
2018-09-23T13:38:07.157Z,0.87
2018-09-23T13:40:35.295Z,0.70
2018-09-23T13:43:03.168Z,0.60
2018-09-23T13:45:32.085Z,0.80
2018-09-23T13:48:01.357Z,1.00
2018-09-23T13:50:29.159Z,0.80
2018-09-23T13:52:57.609Z,1.10
2018-09-23T13:55:27.312Z,0.93
2018-09-23T14:00:43.469Z,0.70
2018-09-23T14:03:13.852Z,0.90
2018-09-23T14:05:45.672Z,0.67
2018-09-23T14:08:13.877Z,2.60
2018-09-23T14:10:49.871Z,0.80
2018-09-23T14:13:21.151Z,0.80
2018-09-23T14:15:54.422Z,1.00
2018-09-23T14:18:22.499Z,0.83
2018-09-23T14:20:56.352Z,0.70
2018-09-23T14:23:27.928Z,0.87
2018-09-23T14:25:55.793Z,0.90
2018-09-23T14:28:24.201Z,0.90
2018-09-23T14:31:01.507Z,1.00
2018-09-23T14:33:31.696Z,1.27
2018-09-23T14:35:59.920Z,1.30
2018-09-23T14:38:30.330Z,1.33
2018-09-23T14:40:58.560Z,1.43
2018-09-23T14:43:26.843Z,2.23
2018-09-23T14:45:55.910Z,1.40
2018-09-23T14:48:29.221Z,1.10
2018-09-23T14:50:57.057Z,1.00
2018-09-23T14:53:25.083Z,1.60
2018-09-23T14:58:58.169Z,0.87
2018-09-23T15:04:38.805Z,0.70
2018-09-23T15:10:01.867Z,1.00
2018-09-23T15:12:31.192Z,0.70
2018-09-23T15:17:34.264Z,0.80
2018-09-23T15:20:03.672Z,0.90
2018-09-23T15:25:45.112Z,0.83
2018-09-23T15:31:14.508Z,0.83
2018-09-23T15:36:45.569Z,0.80
2018-09-23T15:39:13.331Z,0.70
2018-09-23T15:41:51.096Z,0.77
2018-09-23T15:47:26.962Z,0.70
2018-09-23T15:49:59.352Z,0.80
2018-09-23T15:52:29.570Z,1.27
2018-09-23T15:54:59.628Z,0.70
2018-09-23T15:57:27.645Z,0.70
2018-09-23T15:59:59.885Z,0.60
2018-09-23T16:02:28.518Z,0.70
2018-09-23T16:05:02.279Z,0.80
2018-09-23T16:07:34.381Z,1.10
2018-09-23T16:10:02.868Z,0.60
2018-09-23T16:12:30.969Z,0.70
2018-09-23T16:14:59.889Z,1.20
2018-09-23T16:17:30.279Z,1.30
2018-09-23T16:19:59.297Z,1.13
2018-09-23T16:22:27.196Z,4.37
2018-09-23T16:28:10.488Z,14.60
2018-09-23T16:30:38.432Z,3.50
2018-09-23T16:33:07.618Z,4.30
2018-09-23T16:35:35.687Z,2.90
2018-09-23T16:38:04.032Z,0.90
2018-09-23T16:40:41.915Z,0.90
2018-09-23T16:43:09.940Z,0.70
2018-09-23T16:45:37.791Z,0.70
2018-09-23T16:48:05.734Z,0.80
2018-09-23T16:50:33.381Z,1.00
2018-09-23T16:53:01.026Z,1.00
2018-09-23T16:55:29.002Z,0.87
2018-09-23T16:57:56.702Z,1.33
2018-09-23T17:00:24.602Z,1.10
2018-09-23T17:02:54.177Z,0.67
2018-09-23T17:05:22.270Z,0.70
2018-09-23T17:10:58.746Z,0.60
2018-09-23T17:13:35.478Z,0.70
2018-09-23T17:16:03.187Z,0.70
2018-09-23T17:18:38.699Z,0.80
2018-09-23T17:21:07.270Z,0.70
2018-09-23T17:23:35.101Z,0.60
2018-09-23T17:26:03.395Z,0.80
2018-09-23T17:28:33.728Z,0.60
2018-09-23T17:31:01.376Z,0.73
2018-09-23T17:33:33.741Z,0.70
2018-09-23T17:36:02.655Z,0.80
2018-09-23T17:38:31.220Z,1.00
2018-09-23T17:41:03.149Z,0.90
2018-09-23T17:43:33.770Z,0.90
2018-09-23T17:46:01.651Z,0.60
2018-09-23T17:48:32.713Z,0.80
2018-09-23T17:51:03.248Z,0.70
2018-09-23T17:53:31.430Z,0.80
2018-09-23T17:56:00.077Z,0.70
2018-09-23T17:58:28.866Z,0.70
2018-09-23T18:00:57.325Z,0.70
2018-09-23T18:03:27.182Z,0.80
2018-09-23T18:08:57.980Z,1.00
2018-09-23T18:11:39.568Z,0.87
2018-09-23T18:14:11.114Z,1.10
2018-09-23T18:16:38.999Z,0.80
2018-09-23T18:19:08.030Z,1.27
2018-09-23T18:21:40.368Z,0.97
2018-09-23T18:24:10.379Z,1.00
2018-09-23T18:26:38.246Z,1.00
2018-09-23T18:35:01.654Z,1.10
2018-09-23T18:37:29.855Z,0.90
2018-09-23T18:49:00.021Z,0.80
2018-09-23T18:51:28.696Z,0.70
2018-09-23T18:54:01.911Z,0.80
2018-09-23T18:56:29.948Z,1.00
2018-09-23T19:02:09.876Z,0.70
2018-09-23T19:04:37.660Z,1.00
2018-09-23T19:10:10.663Z,1.13
2018-09-23T19:12:38.501Z,0.80
2018-09-23T19:15:12.547Z,0.83
2018-09-23T19:17:44.364Z,0.70
2018-09-23T19:20:28.101Z,0.80
2018-09-23T19:23:09.889Z,0.97
2018-09-23T19:29:01.072Z,0.97
2018-09-23T19:34:36.029Z,0.87
2018-09-23T19:40:26.630Z,1.10
2018-09-23T19:42:54.306Z,0.80
2018-09-23T19:45:22.627Z,0.90
2018-09-23T19:53:57.154Z,0.80
2018-09-23T19:56:44.890Z,0.90
2018-09-23T19:59:12.941Z,0.90
2018-09-23T20:01:50.216Z,0.90
2018-09-23T20:07:34.088Z,1.10
2018-09-23T20:10:02.555Z,1.00
2018-09-23T20:12:33.108Z,1.00
2018-09-23T20:15:01.750Z,1.10
2018-09-23T20:20:30.987Z,0.90
2018-09-23T20:23:21.809Z,1.20
2018-09-23T20:25:52.914Z,1.10
2018-09-23T20:31:41.312Z,1.20
2018-09-23T20:46:28.644Z,1.30
2018-09-23T20:55:01.637Z,1.00
2018-09-23T21:06:27.644Z,0.93
2018-09-23T21:08:55.835Z,0.80
2018-09-23T21:23:12.937Z,1.10
2018-09-23T21:28:29.954Z,1.00
2018-09-23T21:31:04.072Z,1.10
2018-09-23T21:33:34.461Z,1.27
2018-09-23T21:36:02.514Z,1.03
2018-09-23T21:38:50.756Z,0.87
2018-09-23T21:41:18.528Z,1.00
2018-09-23T21:43:49.728Z,1.20
2018-09-23T21:55:01.032Z,1.30
2018-09-23T22:03:32.821Z,1.23
2018-09-23T22:11:59.229Z,1.30
2018-09-23T22:14:26.995Z,1.30
2018-09-23T22:16:54.712Z,1.40
2018-09-23T22:19:30.172Z,1.10
2018-09-23T22:25:01.504Z,1.23
2018-09-23T22:27:29.327Z,1.30
2018-09-23T22:30:11.785Z,1.40
2018-09-23T22:32:40.509Z,1.67
2018-09-23T22:35:15.885Z,2.13
2018-09-23T22:37:43.675Z,1.20
2018-09-23T22:43:39.956Z,1.30
2018-09-23T22:46:29.964Z,1.20
2018-09-23T22:52:18.925Z,1.30
2018-09-23T22:54:47.031Z,1.27
2018-09-23T23:03:19.989Z,1.50
2018-09-23T23:05:54.235Z,1.77
2018-09-23T23:08:28.211Z,1.50
2018-09-23T23:11:18.762Z,1.83
2018-09-23T23:20:11.375Z,1.80
2018-09-23T23:22:43.115Z,2.40
2018-09-23T23:25:11.513Z,1.80
2018-09-23T23:28:00.971Z,1.90
2018-09-23T23:30:31.989Z,2.37
2018-09-23T23:32:59.902Z,2.10
2018-09-23T23:35:27.627Z,1.90
2018-09-23T23:37:55.428Z,2.20
2018-09-23T23:40:23.043Z,1.87
2018-09-23T23:42:50.704Z,2.00
2018-09-23T23:45:31.559Z,2.37
2018-09-23T23:47:59.399Z,2.73
2018-09-23T23:50:31.350Z,2.20
2018-09-23T23:52:59.424Z,2.23
2018-09-23T23:55:28.612Z,2.50
2018-09-23T23:57:56.872Z,2.40
